sensor_id;sensor_type;location;lat;lon;timestamp;temperature;humidity
15355;DHT22;7777;52.254;9.618;2023-04-10T00:01:49;4.00;99.90
15355;DHT22;7777;52.254;9.618;2023-04-10T00:04:15;4.00;99.90
15355;DHT22;7777;52.254;9.618;2023-04-10T00:06:41;4.00;99.90
15355;DHT22;7777;52.254;9.618;2023-04-10T00:09:08;4.00;99.90
15355;DHT22;7777;52.254;9.618;2023-04-10T00:11:34;4.00;99.90
15355;DHT22;7777;52.254;9.618;2023-04-10T00:14:00;3.90;99.90
15355;DHT22;7777;52.254;9.618;2023-04-10T00:16:25;4.00;99.90
15355;DHT22;7777;52.254;9.618;2023-04-10T00:18:51;3.90;99.90
15355;DHT22;7777;52.254;9.618;2023-04-10T00:21:17;4.00;99.90
15355;DHT22;7777;52.254;9.618;2023-04-10T00:23:42;4.00;99.90
15355;DHT22;7777;52.254;9.618;2023-04-10T00:26:08;4.00;99.90
15355;DHT22;7777;52.254;9.618;2023-04-10T00:28:34;4.00;99.90
15355;DHT22;7777;52.254;9.618;2023-04-10T00:31:03;3.90;99.90
15355;DHT22;7777;52.254;9.618;2023-04-10T00:33:29;3.90;99.90
15355;DHT22;7777;52.254;9.618;2023-04-10T00:35:55;4.00;99.90
15355;DHT22;7777;52.254;9.618;2023-04-10T00:38:21;4.00;99.90
15355;DHT22;7777;52.254;9.618;2023-04-10T00:40:47;4.10;99.90
15355;DHT22;7777;52.254;9.618;2023-04-10T00:43:13;4.10;99.90
15355;DHT22;7777;52.254;9.618;2023-04-10T00:45:38;4.20;99.90
15355;DHT22;7777;52.254;9.618;2023-04-10T00:48:04;4.20;99.90
15355;DHT22;7777;52.254;9.618;2023-04-10T00:50:31;4.30;99.90
15355;DHT22;7777;52.254;9.618;2023-04-10T00:52:57;4.40;99.90
15355;DHT22;7777;52.254;9.618;2023-04-10T00:55:23;4.40;99.90
15355;DHT22;7777;52.254;9.618;2023-04-10T00:57:50;4.50;99.90
15355;DHT22;7777;52.254;9.618;2023-04-10T01:00:17;4.50;99.90
15355;DHT22;7777;52.254;9.618;2023-04-10T01:02:43;4.60;99.90
15355;DHT22;7777;52.254;9.618;2023-04-10T01:05:09;4.60;99.90
15355;DHT22;7777;52.254;9.618;2023-04-10T01:10:41;4.70;99.90
15355;DHT22;7777;52.254;9.618;2023-04-10T01:13:21;4.80;99.90
15355;DHT22;7777;52.254;9.618;2023-04-10T01:16:04;4.90;99.90
15355;DHT22;7777;52.254;9.618;2023-04-10T01:19:23;4.90;99.90
15355;DHT22;7777;52.254;9.618;2023-04-10T01:21:55;5.00;99.90
15355;DHT22;7777;52.254;9.618;2023-04-10T01:24:49;5.00;99.90
15355;DHT22;7777;52.254;9.618;2023-04-10T01:28:09;5.10;99.90
15355;DHT22;7777;52.254;9.618;2023-04-10T01:30:36;5.20;99.90
15355;DHT22;7777;52.254;9.618;2023-04-10T01:33:03;5.30;99.90
15355;DHT22;7777;52.254;9.618;2023-04-10T01:35:31;5.30;99.90
15355;DHT22;7777;52.254;9.618;2023-04-10T01:38:00;5.40;99.90
15355;DHT22;7777;52.254;9.618;2023-04-10T01:40:27;5.40;99.90
15355;DHT22;7777;52.254;9.618;2023-04-10T01:42:55;5.50;99.90
15355;DHT22;7777;52.254;9.618;2023-04-10T01:45:25;5.60;99.90
15355;DHT22;7777;52.254;9.618;2023-04-10T01:47:53;5.60;99.90
15355;DHT22;7777;52.254;9.618;2023-04-10T01:50:21;5.70;99.90
15355;DHT22;7777;52.254;9.618;2023-04-10T01:52:50;5.80;99.90
15355;DHT22;7777;52.254;9.618;2023-04-10T01:55:20;5.80;99.90
15355;DHT22;7777;52.254;9.618;2023-04-10T01:57:46;5.90;99.90
15355;DHT22;7777;52.254;9.618;2023-04-10T02:00:14;5.90;99.90
15355;DHT22;7777;52.254;9.618;2023-04-10T02:02:41;6.00;99.90
15355;DHT22;7777;52.254;9.618;2023-04-10T02:05:08;6.00;99.90
15355;DHT22;7777;52.254;9.618;2023-04-10T02:08:04;6.10;99.90
15355;DHT22;7777;52.254;9.618;2023-04-10T02:10:43;6.10;99.90
15355;DHT22;7777;52.254;9.618;2023-04-10T02:13:14;6.10;99.90
15355;DHT22;7777;52.254;9.618;2023-04-10T02:15:45;6.20;99.90
15355;DHT22;7777;52.254;9.618;2023-04-10T02:18:15;6.20;99.90
15355;DHT22;7777;52.254;9.618;2023-04-10T02:20:41;6.30;99.90
15355;DHT22;7777;52.254;9.618;2023-04-10T02:23:07;6.30;99.90
15355;DHT22;7777;52.254;9.618;2023-04-10T02:25:34;6.30;99.90
15355;DHT22;7777;52.254;9.618;2023-04-10T02:28:04;6.30;99.90
15355;DHT22;7777;52.254;9.618;2023-04-10T02:30:30;6.30;99.90
15355;DHT22;7777;52.254;9.618;2023-04-10T02:32:57;6.40;99.90
15355;DHT22;7777;52.254;9.618;2023-04-10T02:35:23;6.30;99.90
15355;DHT22;7777;52.254;9.618;2023-04-10T02:37:48;6.40;99.90
15355;DHT22;7777;52.254;9.618;2023-04-10T02:40:15;6.40;99.90
15355;DHT22;7777;52.254;9.618;2023-04-10T02:42:41;6.40;99.90
15355;DHT22;7777;52.254;9.618;2023-04-10T02:45:07;6.40;99.90
15355;DHT22;7777;52.254;9.618;2023-04-10T02:47:33;6.30;99.90
15355;DHT22;7777;52.254;9.618;2023-04-10T02:49:59;6.30;99.90
15355;DHT22;7777;52.254;9.618;2023-04-10T02:52:25;6.30;99.90
15355;DHT22;7777;52.254;9.618;2023-04-10T02:54:51;6.30;99.90
15355;DHT22;7777;52.254;9.618;2023-04-10T02:57:17;6.20;99.90
15355;DHT22;7777;52.254;9.618;2023-04-10T02:59:42;6.20;99.90
15355;DHT22;7777;52.254;9.618;2023-04-10T03:02:09;6.20;99.90
15355;DHT22;7777;52.254;9.618;2023-04-10T03:04:35;6.20;99.90
15355;DHT22;7777;52.254;9.618;2023-04-10T03:07:01;6.20;99.90
15355;DHT22;7777;52.254;9.618;2023-04-10T03:09:27;6.20;99.90
15355;DHT22;7777;52.254;9.618;2023-04-10T03:11:53;6.30;99.90
15355;DHT22;7777;52.254;9.618;2023-04-10T03:14:19;6.20;99.90
15355;DHT22;7777;52.254;9.618;2023-04-10T03:16:45;6.30;99.90
15355;DHT22;7777;52.254;9.618;2023-04-10T03:19:12;6.30;99.90
15355;DHT22;7777;52.254;9.618;2023-04-10T03:21:38;6.30;99.90
15355;DHT22;7777;52.254;9.618;2023-04-10T03:24:04;6.30;99.90
15355;DHT22;7777;52.254;9.618;2023-04-10T03:26:30;6.30;99.90
15355;DHT22;7777;52.254;9.618;2023-04-10T03:28:56;6.30;99.90
15355;DHT22;7777;52.254;9.618;2023-04-10T03:31:22;6.30;99.90
15355;DHT22;7777;52.254;9.618;2023-04-10T03:33:48;6.40;99.90
15355;DHT22;7777;52.254;9.618;2023-04-10T03:36:14;6.40;99.90
15355;DHT22;7777;52.254;9.618;2023-04-10T03:38:39;6.40;99.90
15355;DHT22;7777;52.254;9.618;2023-04-10T03:41:05;6.30;99.90
15355;DHT22;7777;52.254;9.618;2023-04-10T03:43:31;6.30;99.90
15355;DHT22;7777;52.254;9.618;2023-04-10T03:45:57;6.30;99.90
15355;DHT22;7777;52.254;9.618;2023-04-10T03:48:22;6.30;99.90
15355;DHT22;7777;52.254;9.618;2023-04-10T03:50:52;6.30;99.90
15355;DHT22;7777;52.254;9.618;2023-04-10T03:53:19;6.30;99.90
15355;DHT22;7777;52.254;9.618;2023-04-10T03:55:45;6.30;99.90
15355;DHT22;7777;52.254;9.618;2023-04-10T03:58:10;6.30;99.90
15355;DHT22;7777;52.254;9.618;2023-04-10T04:00:37;6.30;99.90
15355;DHT22;7777;52.254;9.618;2023-04-10T04:03:03;6.40;99.90
15355;DHT22;7777;52.254;9.618;2023-04-10T04:05:30;6.40;99.90
15355;DHT22;7777;52.254;9.618;2023-04-10T04:07:56;6.40;99.90
15355;DHT22;7777;52.254;9.618;2023-04-10T04:10:22;6.30;99.90
15355;DHT22;7777;52.254;9.618;2023-04-10T04:12:48;6.30;99.90
15355;DHT22;7777;52.254;9.618;2023-04-10T04:15:14;6.30;99.90
15355;DHT22;7777;52.254;9.618;2023-04-10T04:17:41;6.30;99.90
15355;DHT22;7777;52.254;9.618;2023-04-10T04:20:08;6.30;99.90
15355;DHT22;7777;52.254;9.618;2023-04-10T04:22:34;6.30;99.90
15355;DHT22;7777;52.254;9.618;2023-04-10T04:25:00;6.30;99.90
15355;DHT22;7777;52.254;9.618;2023-04-10T04:27:25;6.30;99.90
15355;DHT22;7777;52.254;9.618;2023-04-10T04:29:51;6.30;99.90
15355;DHT22;7777;52.254;9.618;2023-04-10T04:32:17;6.30;99.90
15355;DHT22;7777;52.254;9.618;2023-04-10T04:34:42;6.30;99.90
15355;DHT22;7777;52.254;9.618;2023-04-10T04:37:08;6.30;99.90
15355;DHT22;7777;52.254;9.618;2023-04-10T04:39:34;6.30;99.90
15355;DHT22;7777;52.254;9.618;2023-04-10T04:41:59;6.40;99.90
15355;DHT22;7777;52.254;9.618;2023-04-10T04:44:25;6.40;99.90
15355;DHT22;7777;52.254;9.618;2023-04-10T04:46:51;6.40;99.90
15355;DHT22;7777;52.254;9.618;2023-04-10T04:49:16;6.50;99.90
15355;DHT22;7777;52.254;9.618;2023-04-10T04:51:42;6.50;99.90
15355;DHT22;7777;52.254;9.618;2023-04-10T04:54:08;6.50;99.90
15355;DHT22;7777;52.254;9.618;2023-04-10T04:56:34;6.50;99.90
15355;DHT22;7777;52.254;9.618;2023-04-10T04:59:00;6.50;99.90
15355;DHT22;7777;52.254;9.618;2023-04-10T05:01:26;6.50;99.90
15355;DHT22;7777;52.254;9.618;2023-04-10T05:03:51;6.60;99.90
15355;DHT22;7777;52.254;9.618;2023-04-10T05:06:17;6.60;99.90
15355;DHT22;7777;52.254;9.618;2023-04-10T05:08:43;6.60;99.90
15355;DHT22;7777;52.254;9.618;2023-04-10T05:11:09;6.60;99.90
15355;DHT22;7777;52.254;9.618;2023-04-10T05:13:35;6.80;99.90
15355;DHT22;7777;52.254;9.618;2023-04-10T05:16:00;6.70;99.90
15355;DHT22;7777;52.254;9.618;2023-04-10T05:18:27;6.70;99.90
15355;DHT22;7777;52.254;9.618;2023-04-10T05:20:52;6.70;99.90
15355;DHT22;7777;52.254;9.618;2023-04-10T05:23:18;6.80;99.90
15355;DHT22;7777;52.254;9.618;2023-04-10T05:25:44;6.80;99.90
15355;DHT22;7777;52.254;9.618;2023-04-10T05:28:09;6.80;99.90
15355;DHT22;7777;52.254;9.618;2023-04-10T05:30:35;6.90;99.90
15355;DHT22;7777;52.254;9.618;2023-04-10T05:33:01;6.90;99.90
15355;DHT22;7777;52.254;9.618;2023-04-10T05:35:27;6.90;99.90
15355;DHT22;7777;52.254;9.618;2023-04-10T05:37:52;6.90;99.90
15355;DHT22;7777;52.254;9.618;2023-04-10T05:40:18;7.00;99.90
15355;DHT22;7777;52.254;9.618;2023-04-10T05:42:45;7.00;99.90
15355;DHT22;7777;52.254;9.618;2023-04-10T05:45:10;7.00;99.90
15355;DHT22;7777;52.254;9.618;2023-04-10T05:47:36;7.10;99.90
15355;DHT22;7777;52.254;9.618;2023-04-10T05:50:02;7.10;99.90
15355;DHT22;7777;52.254;9.618;2023-04-10T05:52:28;7.10;99.90
15355;DHT22;7777;52.254;9.618;2023-04-10T05:54:53;7.20;99.90
15355;DHT22;7777;52.254;9.618;2023-04-10T05:57:19;7.20;99.90
15355;DHT22;7777;52.254;9.618;2023-04-10T05:59:45;7.20;99.90
15355;DHT22;7777;52.254;9.618;2023-04-10T06:02:11;7.30;99.90
15355;DHT22;7777;52.254;9.618;2023-04-10T06:04:37;7.30;99.90
15355;DHT22;7777;52.254;9.618;2023-04-10T06:07:03;7.40;99.90
15355;DHT22;7777;52.254;9.618;2023-04-10T06:09:29;7.40;99.90
15355;DHT22;7777;52.254;9.618;2023-04-10T06:11:55;7.40;99.90
15355;DHT22;7777;52.254;9.618;2023-04-10T06:14:21;7.40;99.90
15355;DHT22;7777;52.254;9.618;2023-04-10T06:16:47;7.50;99.90
15355;DHT22;7777;52.254;9.618;2023-04-10T06:19:13;7.50;99.90
15355;DHT22;7777;52.254;9.618;2023-04-10T06:21:38;7.60;99.90
15355;DHT22;7777;52.254;9.618;2023-04-10T06:24:04;7.60;99.90
15355;DHT22;7777;52.254;9.618;2023-04-10T06:26:30;7.70;99.90
15355;DHT22;7777;52.254;9.618;2023-04-10T06:28:58;7.80;99.90
15355;DHT22;7777;52.254;9.618;2023-04-10T06:31:24;7.80;99.90
15355;DHT22;7777;52.254;9.618;2023-04-10T06:33:50;7.80;99.90
15355;DHT22;7777;52.254;9.618;2023-04-10T06:36:16;7.90;99.90
15355;DHT22;7777;52.254;9.618;2023-04-10T06:38:42;7.90;99.90
15355;DHT22;7777;52.254;9.618;2023-04-10T06:41:09;8.00;99.90
15355;DHT22;7777;52.254;9.618;2023-04-10T06:43:35;8.00;99.90
15355;DHT22;7777;52.254;9.618;2023-04-10T06:46:02;8.10;99.90
15355;DHT22;7777;52.254;9.618;2023-04-10T06:48:30;8.10;99.90
15355;DHT22;7777;52.254;9.618;2023-04-10T06:50:57;8.20;99.90
15355;DHT22;7777;52.254;9.618;2023-04-10T06:53:25;8.30;99.90
15355;DHT22;7777;52.254;9.618;2023-04-10T06:55:55;8.30;99.90
15355;DHT22;7777;52.254;9.618;2023-04-10T06:58:21;8.40;99.90
15355;DHT22;7777;52.254;9.618;2023-04-10T07:00:48;8.50;99.90
15355;DHT22;7777;52.254;9.618;2023-04-10T07:03:16;8.60;99.90
15355;DHT22;7777;52.254;9.618;2023-04-10T07:05:42;8.60;99.90
15355;DHT22;7777;52.254;9.618;2023-04-10T07:08:08;8.70;99.90
15355;DHT22;7777;52.254;9.618;2023-04-10T07:10:44;8.80;99.90
15355;DHT22;7777;52.254;9.618;2023-04-10T07:13:10;8.90;99.90
15355;DHT22;7777;52.254;9.618;2023-04-10T07:15:35;9.00;99.90
15355;DHT22;7777;52.254;9.618;2023-04-10T07:18:01;9.10;99.90
15355;DHT22;7777;52.254;9.618;2023-04-10T07:20:27;9.20;99.90
15355;DHT22;7777;52.254;9.618;2023-04-10T07:22:52;9.20;99.90
15355;DHT22;7777;52.254;9.618;2023-04-10T07:25:18;9.30;99.90
15355;DHT22;7777;52.254;9.618;2023-04-10T07:27:44;9.40;99.90
15355;DHT22;7777;52.254;9.618;2023-04-10T07:30:10;9.50;99.90
15355;DHT22;7777;52.254;9.618;2023-04-10T07:32:36;9.60;99.90
15355;DHT22;7777;52.254;9.618;2023-04-10T07:35:04;9.60;99.90
15355;DHT22;7777;52.254;9.618;2023-04-10T07:37:30;9.70;99.90
15355;DHT22;7777;52.254;9.618;2023-04-10T07:39:56;9.80;99.90
15355;DHT22;7777;52.254;9.618;2023-04-10T07:42:22;9.90;99.90
15355;DHT22;7777;52.254;9.618;2023-04-10T07:44:47;10.10;99.90
15355;DHT22;7777;52.254;9.618;2023-04-10T07:47:13;10.20;99.90
15355;DHT22;7777;52.254;9.618;2023-04-10T07:49:39;10.30;99.90
15355;DHT22;7777;52.254;9.618;2023-04-10T07:52:05;10.40;99.90
15355;DHT22;7777;52.254;9.618;2023-04-10T07:54:31;10.50;99.90
15355;DHT22;7777;52.254;9.618;2023-04-10T07:56:58;10.60;99.90
15355;DHT22;7777;52.254;9.618;2023-04-10T07:59:24;10.60;99.90
15355;DHT22;7777;52.254;9.618;2023-04-10T08:01:51;10.70;99.90
15355;DHT22;7777;52.254;9.618;2023-04-10T08:04:16;10.80;99.90
15355;DHT22;7777;52.254;9.618;2023-04-10T08:06:42;10.90;99.90
15355;DHT22;7777;52.254;9.618;2023-04-10T08:09:08;11.00;99.90
15355;DHT22;7777;52.254;9.618;2023-04-10T08:11:34;11.10;99.90
15355;DHT22;7777;52.254;9.618;2023-04-10T08:14:02;11.20;99.90
15355;DHT22;7777;52.254;9.618;2023-04-10T08:16:31;11.30;99.90
15355;DHT22;7777;52.254;9.618;2023-04-10T08:18:58;11.30;99.90
15355;DHT22;7777;52.254;9.618;2023-04-10T08:21:26;11.40;99.90
15355;DHT22;7777;52.254;9.618;2023-04-10T08:23:57;11.50;99.90
15355;DHT22;7777;52.254;9.618;2023-04-10T08:26:25;11.60;99.90
15355;DHT22;7777;52.254;9.618;2023-04-10T08:28:52;11.70;99.90
15355;DHT22;7777;52.254;9.618;2023-04-10T08:31:20;11.70;99.90
15355;DHT22;7777;52.254;9.618;2023-04-10T08:33:47;11.80;99.90
15355;DHT22;7777;52.254;9.618;2023-04-10T08:36:14;11.90;99.90
15355;DHT22;7777;52.254;9.618;2023-04-10T08:38:43;12.00;99.90
15355;DHT22;7777;52.254;9.618;2023-04-10T08:41:19;12.10;99.90
15355;DHT22;7777;52.254;9.618;2023-04-10T08:43:45;12.20;99.90
15355;DHT22;7777;52.254;9.618;2023-04-10T08:46:12;12.30;99.90
15355;DHT22;7777;52.254;9.618;2023-04-10T08:49:02;12.40;99.90
15355;DHT22;7777;52.254;9.618;2023-04-10T08:51:42;12.50;99.90
15355;DHT22;7777;52.254;9.618;2023-04-10T08:54:20;12.60;99.90
15355;DHT22;7777;52.254;9.618;2023-04-10T08:56:54;12.70;99.90
15355;DHT22;7777;52.254;9.618;2023-04-10T08:59:21;12.80;99.90
15355;DHT22;7777;52.254;9.618;2023-04-10T09:01:47;12.80;99.90
15355;DHT22;7777;52.254;9.618;2023-04-10T09:04:13;12.90;99.90
15355;DHT22;7777;52.254;9.618;2023-04-10T09:06:41;13.00;99.90
15355;DHT22;7777;52.254;9.618;2023-04-10T09:09:06;13.10;99.90
15355;DHT22;7777;52.254;9.618;2023-04-10T09:14:23;13.30;99.90
15355;DHT22;7777;52.254;9.618;2023-04-10T09:16:50;13.40;99.90
15355;DHT22;7777;52.254;9.618;2023-04-10T09:19:43;13.50;99.90
15355;DHT22;7777;52.254;9.618;2023-04-10T09:22:11;13.60;99.90
15355;DHT22;7777;52.254;9.618;2023-04-10T09:24:39;13.70;99.90
15355;DHT22;7777;52.254;9.618;2023-04-10T09:27:07;13.90;99.90
15355;DHT22;7777;52.254;9.618;2023-04-10T09:29:44;14.00;99.90
15355;DHT22;7777;52.254;9.618;2023-04-10T09:32:13;14.10;99.90
15355;DHT22;7777;52.254;9.618;2023-04-10T09:34:55;14.30;99.90
15355;DHT22;7777;52.254;9.618;2023-04-10T09:37:30;14.40;99.90
15355;DHT22;7777;52.254;9.618;2023-04-10T09:39:57;14.60;99.90
15355;DHT22;7777;52.254;9.618;2023-04-10T09:42:36;14.70;99.90
15355;DHT22;7777;52.254;9.618;2023-04-10T09:45:03;14.80;99.90
15355;DHT22;7777;52.254;9.618;2023-04-10T09:47:29;15.00;99.90
15355;DHT22;7777;52.254;9.618;2023-04-10T09:49:56;15.10;99.90
15355;DHT22;7777;52.254;9.618;2023-04-10T09:52:27;15.20;99.90
15355;DHT22;7777;52.254;9.618;2023-04-10T09:54:55;15.40;99.90
15355;DHT22;7777;52.254;9.618;2023-04-10T09:57:24;15.40;99.90
15355;DHT22;7777;52.254;9.618;2023-04-10T09:59:53;15.50;99.90
15355;DHT22;7777;52.254;9.618;2023-04-10T10:02:22;15.60;99.90
15355;DHT22;7777;52.254;9.618;2023-04-10T10:04:50;15.60;99.60
15355;DHT22;7777;52.254;9.618;2023-04-10T10:07:18;15.80;99.90
15355;DHT22;7777;52.254;9.618;2023-04-10T10:09:47;15.80;99.90
15355;DHT22;7777;52.254;9.618;2023-04-10T10:12:21;16.00;99.00
15355;DHT22;7777;52.254;9.618;2023-04-10T10:15:00;16.10;99.80
15355;DHT22;7777;52.254;9.618;2023-04-10T10:17:44;16.30;99.50
15355;DHT22;7777;52.254;9.618;2023-04-10T10:20:12;16.40;97.90
15355;DHT22;7777;52.254;9.618;2023-04-10T10:22:43;16.40;97.70
15355;DHT22;7777;52.254;9.618;2023-04-10T10:25:09;16.50;98.10
15355;DHT22;7777;52.254;9.618;2023-04-10T10:27:36;16.60;97.70
15355;DHT22;7777;52.254;9.618;2023-04-10T10:30:04;16.70;96.60
15355;DHT22;7777;52.254;9.618;2023-04-10T10:32:31;16.70;96.50
15355;DHT22;7777;52.254;9.618;2023-04-10T10:34:59;16.80;96.20
15355;DHT22;7777;52.254;9.618;2023-04-10T10:37:29;16.80;95.60
15355;DHT22;7777;52.254;9.618;2023-04-10T10:39:58;16.90;95.80
15355;DHT22;7777;52.254;9.618;2023-04-10T10:42:33;16.90;95.10
15355;DHT22;7777;52.254;9.618;2023-04-10T10:45:12;16.90;95.20
15355;DHT22;7777;52.254;9.618;2023-04-10T10:47:44;17.00;95.50
15355;DHT22;7777;52.254;9.618;2023-04-10T10:50:11;17.10;95.50
15355;DHT22;7777;52.254;9.618;2023-04-10T10:58:08;17.40;95.40
15355;DHT22;7777;52.254;9.618;2023-04-10T11:11:02;17.50;92.70
15355;DHT22;7777;52.254;9.618;2023-04-10T11:13:30;17.60;92.40
15355;DHT22;7777;52.254;9.618;2023-04-10T11:15:58;17.70;93.70
15355;DHT22;7777;52.254;9.618;2023-04-10T11:19:00;17.80;92.90
15355;DHT22;7777;52.254;9.618;2023-04-10T11:21:26;17.90;93.20
15355;DHT22;7777;52.254;9.618;2023-04-10T11:31:42;17.90;91.40
15355;DHT22;7777;52.254;9.618;2023-04-10T11:34:09;17.90;90.20
15355;DHT22;7777;52.254;9.618;2023-04-10T11:36:42;17.90;90.40
15355;DHT22;7777;52.254;9.618;2023-04-10T11:39:11;17.90;91.20
15355;DHT22;7777;52.254;9.618;2023-04-10T11:41:45;18.10;90.80
15355;DHT22;7777;52.254;9.618;2023-04-10T11:44:17;18.20;90.70
15355;DHT22;7777;52.254;9.618;2023-04-10T11:46:48;18.30;91.10
15355;DHT22;7777;52.254;9.618;2023-04-10T11:49:40;18.30;90.10
15355;DHT22;7777;52.254;9.618;2023-04-10T11:52:06;18.50;90.10
15355;DHT22;7777;52.254;9.618;2023-04-10T11:54:32;18.50;90.40
15355;DHT22;7777;52.254;9.618;2023-04-10T11:57:02;18.60;89.80
15355;DHT22;7777;52.254;9.618;2023-04-10T11:59:36;18.60;87.40
15355;DHT22;7777;52.254;9.618;2023-04-10T12:02:07;18.70;90.20
15355;DHT22;7777;52.254;9.618;2023-04-10T12:04:34;18.70;87.90
15355;DHT22;7777;52.254;9.618;2023-04-10T12:07:01;18.80;90.70
15355;DHT22;7777;52.254;9.618;2023-04-10T12:09:27;19.00;90.10
15355;DHT22;7777;52.254;9.618;2023-04-10T12:11:58;19.00;87.00
15355;DHT22;7777;52.254;9.618;2023-04-10T12:17:00;19.10;88.70
15355;DHT22;7777;52.254;9.618;2023-04-10T12:19:27;19.20;90.90
15355;DHT22;7777;52.254;9.618;2023-04-10T12:21:54;19.30;88.10
15355;DHT22;7777;52.254;9.618;2023-04-10T12:24:43;19.20;89.00
15355;DHT22;7777;52.254;9.618;2023-04-10T12:27:19;19.30;89.30
15355;DHT22;7777;52.254;9.618;2023-04-10T12:29:47;19.30;85.40
15355;DHT22;7777;52.254;9.618;2023-04-10T12:32:14;19.20;84.90
15355;DHT22;7777;52.254;9.618;2023-04-10T12:34:40;19.10;84.10
15355;DHT22;7777;52.254;9.618;2023-04-10T12:37:07;19.00;85.20
15355;DHT22;7777;52.254;9.618;2023-04-10T12:39:34;18.90;84.40
15355;DHT22;7777;52.254;9.618;2023-04-10T12:42:18;18.70;84.30
15355;DHT22;7777;52.254;9.618;2023-04-10T12:47:19;18.50;83.40
15355;DHT22;7777;52.254;9.618;2023-04-10T12:50:08;18.50;83.70
15355;DHT22;7777;52.254;9.618;2023-04-10T12:52:36;18.40;81.90
15355;DHT22;7777;52.254;9.618;2023-04-10T12:57:39;18.30;84.20
15355;DHT22;7777;52.254;9.618;2023-04-10T13:00:07;18.30;84.00
15355;DHT22;7777;52.254;9.618;2023-04-10T13:02:37;18.30;83.30
15355;DHT22;7777;52.254;9.618;2023-04-10T13:05:04;18.20;84.30
15355;DHT22;7777;52.254;9.618;2023-04-10T13:07:30;18.30;87.20
15355;DHT22;7777;52.254;9.618;2023-04-10T13:09:57;18.30;85.50
15355;DHT22;7777;52.254;9.618;2023-04-10T13:12:23;18.20;85.10
15355;DHT22;7777;52.254;9.618;2023-04-10T13:14:50;18.10;84.20
15355;DHT22;7777;52.254;9.618;2023-04-10T13:17:20;18.10;84.00
15355;DHT22;7777;52.254;9.618;2023-04-10T13:19:47;18.10;85.80
15355;DHT22;7777;52.254;9.618;2023-04-10T13:22:13;18.10;84.30
15355;DHT22;7777;52.254;9.618;2023-04-10T13:24:39;18.10;83.70
15355;DHT22;7777;52.254;9.618;2023-04-10T13:27:05;18.10;84.00
15355;DHT22;7777;52.254;9.618;2023-04-10T13:29:30;18.10;84.10
15355;DHT22;7777;52.254;9.618;2023-04-10T13:31:56;18.10;83.50
15355;DHT22;7777;52.254;9.618;2023-04-10T13:34:24;18.10;83.30
15355;DHT22;7777;52.254;9.618;2023-04-10T13:36:50;18.10;84.20
15355;DHT22;7777;52.254;9.618;2023-04-10T13:39:18;18.10;84.20
15355;DHT22;7777;52.254;9.618;2023-04-10T13:41:43;18.10;84.10
15355;DHT22;7777;52.254;9.618;2023-04-10T13:44:09;18.20;83.40
15355;DHT22;7777;52.254;9.618;2023-04-10T13:46:35;18.20;84.70
15355;DHT22;7777;52.254;9.618;2023-04-10T13:49:00;18.20;83.60
15355;DHT22;7777;52.254;9.618;2023-04-10T13:51:26;18.30;85.10
15355;DHT22;7777;52.254;9.618;2023-04-10T13:53:54;18.40;84.80
15355;DHT22;7777;52.254;9.618;2023-04-10T13:56:19;18.50;83.40
15355;DHT22;7777;52.254;9.618;2023-04-10T13:58:45;18.50;85.10
15355;DHT22;7777;52.254;9.618;2023-04-10T14:01:11;18.50;82.60
15355;DHT22;7777;52.254;9.618;2023-04-10T14:03:37;18.50;84.40
15355;DHT22;7777;52.254;9.618;2023-04-10T14:06:03;18.60;83.20
15355;DHT22;7777;52.254;9.618;2023-04-10T14:08:29;18.60;84.40
15355;DHT22;7777;52.254;9.618;2023-04-10T14:10:55;18.60;83.90
15355;DHT22;7777;52.254;9.618;2023-04-10T14:13:21;18.60;82.50
15355;DHT22;7777;52.254;9.618;2023-04-10T14:15:46;18.70;84.10
15355;DHT22;7777;52.254;9.618;2023-04-10T14:18:12;18.60;84.10
15355;DHT22;7777;52.254;9.618;2023-04-10T14:20:41;18.60;82.10
15355;DHT22;7777;52.254;9.618;2023-04-10T14:23:08;18.60;83.00
15355;DHT22;7777;52.254;9.618;2023-04-10T14:25:33;18.60;83.50
15355;DHT22;7777;52.254;9.618;2023-04-10T14:27:59;18.60;83.30
15355;DHT22;7777;52.254;9.618;2023-04-10T14:30:25;18.60;82.50
15355;DHT22;7777;52.254;9.618;2023-04-10T14:32:55;18.60;82.00
15355;DHT22;7777;52.254;9.618;2023-04-10T14:35:21;18.50;82.20
15355;DHT22;7777;52.254;9.618;2023-04-10T14:37:47;18.50;82.20
15355;DHT22;7777;52.254;9.618;2023-04-10T14:40:12;18.50;81.80
15355;DHT22;7777;52.254;9.618;2023-04-10T14:42:38;18.50;82.10
15355;DHT22;7777;52.254;9.618;2023-04-10T14:45:04;18.60;82.40
15355;DHT22;7777;52.254;9.618;2023-04-10T14:47:30;18.60;82.90
15355;DHT22;7777;52.254;9.618;2023-04-10T14:49:57;18.60;83.80
15355;DHT22;7777;52.254;9.618;2023-04-10T14:52:22;18.60;83.00
15355;DHT22;7777;52.254;9.618;2023-04-10T14:54:48;18.60;83.00
15355;DHT22;7777;52.254;9.618;2023-04-10T14:57:14;18.40;81.70
15355;DHT22;7777;52.254;9.618;2023-04-10T14:59:40;18.40;80.70
15355;DHT22;7777;52.254;9.618;2023-04-10T15:02:06;18.30;81.40
15355;DHT22;7777;52.254;9.618;2023-04-10T15:04:34;18.30;80.60
15355;DHT22;7777;52.254;9.618;2023-04-10T15:07:00;18.30;80.00
15355;DHT22;7777;52.254;9.618;2023-04-10T15:09:26;18.30;81.20
15355;DHT22;7777;52.254;9.618;2023-04-10T15:11:52;18.30;81.60
15355;DHT22;7777;52.254;9.618;2023-04-10T15:14:19;18.30;82.40
15355;DHT22;7777;52.254;9.618;2023-04-10T15:16:45;18.20;81.40
15355;DHT22;7777;52.254;9.618;2023-04-10T15:19:11;18.20;81.30
15355;DHT22;7777;52.254;9.618;2023-04-10T15:21:37;18.20;81.80
15355;DHT22;7777;52.254;9.618;2023-04-10T15:24:03;18.20;83.00
15355;DHT22;7777;52.254;9.618;2023-04-10T15:26:28;18.20;81.60
15355;DHT22;7777;52.254;9.618;2023-04-10T15:28:54;18.20;82.40
15355;DHT22;7777;52.254;9.618;2023-04-10T15:31:23;18.20;82.50
15355;DHT22;7777;52.254;9.618;2023-04-10T15:33:50;18.30;82.00
15355;DHT22;7777;52.254;9.618;2023-04-10T15:36:16;18.30;83.30
15355;DHT22;7777;52.254;9.618;2023-04-10T15:38:42;18.20;81.80
15355;DHT22;7777;52.254;9.618;2023-04-10T15:41:09;18.20;81.20
15355;DHT22;7777;52.254;9.618;2023-04-10T15:43:37;18.20;80.30
15355;DHT22;7777;52.254;9.618;2023-04-10T15:46:03;18.10;80.90
15355;DHT22;7777;52.254;9.618;2023-04-10T15:48:29;18.00;80.70
15355;DHT22;7777;52.254;9.618;2023-04-10T15:50:55;17.80;80.30
15355;DHT22;7777;52.254;9.618;2023-04-10T15:53:21;17.80;80.50
15355;DHT22;7777;52.254;9.618;2023-04-10T15:55:46;17.80;81.50
15355;DHT22;7777;52.254;9.618;2023-04-10T15:58:12;17.70;80.80
15355;DHT22;7777;52.254;9.618;2023-04-10T16:00:38;17.60;81.00
15355;DHT22;7777;52.254;9.618;2023-04-10T16:03:04;17.60;81.50
15355;DHT22;7777;52.254;9.618;2023-04-10T16:05:30;17.60;80.80
15355;DHT22;7777;52.254;9.618;2023-04-10T16:07:56;17.50;81.00
15355;DHT22;7777;52.254;9.618;2023-04-10T16:10:21;17.40;80.20
15355;DHT22;7777;52.254;9.618;2023-04-10T16:12:47;17.30;80.80
15355;DHT22;7777;52.254;9.618;2023-04-10T16:15:13;17.30;80.90
15355;DHT22;7777;52.254;9.618;2023-04-10T16:17:39;17.30;80.90
15355;DHT22;7777;52.254;9.618;2023-04-10T16:20:07;17.20;81.70
15355;DHT22;7777;52.254;9.618;2023-04-10T16:22:33;17.20;81.60
15355;DHT22;7777;52.254;9.618;2023-04-10T16:25:01;17.10;81.60
15355;DHT22;7777;52.254;9.618;2023-04-10T16:27:26;17.10;81.60
15355;DHT22;7777;52.254;9.618;2023-04-10T16:29:52;17.00;82.00
15355;DHT22;7777;52.254;9.618;2023-04-10T16:32:20;16.90;82.10
15355;DHT22;7777;52.254;9.618;2023-04-10T16:35:09;16.90;82.90